Foxboro, Massachusetts
Current Conditions -  °F | °C
As of 1:53 PM on Saturday 25 Oct 2014 (Local Time) from KOWD Reporting Station
Clear Clear  
Wind Chill: 64°   Ceiling: Unl
Heat Index: 64°   Visibility: 10mi
Dew Point: 39°   Wind: 13mph
Humidity: 40%   Direction: 260°W
Pressure: 29.64"   Gusts: NA
Location:  42.06°N, 71.25°W
Report Text: KOWD 251753Z 26011KT 10SM CLR 18/04 A2964 RMK AO2 SLP037 T01780039 10183 20072 56027
Loading
Personal Weather Stations






























Interactive Weather Map New forecast layout! Learn more

10-Day Weather Forecast

Advertisements
Track Severe Weather on mobile